sensor_id;sensor_type;location;lat;lon;timestamp;P1;durP1;ratioP1;P2;durP2;ratioP2
32327;SDS011;18806;51.558;5.100;2022-08-19T03:23:54;47.88;;;36.53;;
32327;SDS011;18806;51.558;5.100;2022-08-19T03:26:25;46.53;;;33.67;;
32327;SDS011;18806;51.558;5.100;2022-08-19T03:28:53;46.30;;;33.30;;
32327;SDS011;18806;51.558;5.100;2022-08-19T03:31:24;46.22;;;32.58;;
32327;SDS011;18806;51.558;5.100;2022-08-19T03:34:33;44.25;;;31.75;;
32327;SDS011;18806;51.558;5.100;2022-08-19T03:37:03;45.88;;;32.63;;
32327;SDS011;18806;51.558;5.100;2022-08-19T03:39:31;47.53;;;34.03;;
32327;SDS011;18806;51.558;5.100;2022-08-19T03:42:03;47.67;;;32.78;;
32327;SDS011;18806;51.558;5.100;2022-08-19T03:44:51;51.22;;;34.78;;
32327;SDS011;18806;51.558;5.100;2022-08-19T03:47:18;51.25;;;35.33;;
32327;SDS011;18806;51.558;5.100;2022-08-19T03:49:46;47.25;;;33.42;;
32327;SDS011;18806;51.558;5.100;2022-08-19T03:52:13;47.40;;;34.33;;
32327;SDS011;18806;51.558;5.100;2022-08-19T03:54:41;49.80;;;34.35;;
32327;SDS011;18806;51.558;5.100;2022-08-19T03:57:10;56.25;;;36.33;;
32327;SDS011;18806;51.558;5.100;2022-08-19T03:59:37;50.90;;;35.83;;
32327;SDS011;18806;51.558;5.100;2022-08-19T04:02:09;51.38;;;35.47;;
32327;SDS011;18806;51.558;5.100;2022-08-19T04:04:38;52.10;;;35.88;;
32327;SDS011;18806;51.558;5.100;2022-08-19T04:07:11;52.35;;;36.63;;
32327;SDS011;18806;51.558;5.100;2022-08-19T04:09:44;54.53;;;37.67;;
32327;SDS011;18806;51.558;5.100;2022-08-19T04:12:18;54.22;;;38.00;;
32327;SDS011;18806;51.558;5.100;2022-08-19T04:14:46;56.28;;;37.67;;
32327;SDS011;18806;51.558;5.100;2022-08-19T04:17:13;55.17;;;38.63;;
32327;SDS011;18806;51.558;5.100;2022-08-19T04:19:40;60.88;;;39.90;;
32327;SDS011;18806;51.558;5.100;2022-08-19T04:22:15;60.22;;;39.53;;
32327;SDS011;18806;51.558;5.100;2022-08-19T04:24:42;62.38;;;39.55;;
32327;SDS011;18806;51.558;5.100;2022-08-19T04:27:09;59.78;;;39.40;;
32327;SDS011;18806;51.558;5.100;2022-08-19T04:29:36;63.42;;;39.35;;
32327;SDS011;18806;51.558;5.100;2022-08-19T04:32:05;57.13;;;38.03;;
32327;SDS011;18806;51.558;5.100;2022-08-19T04:34:35;60.22;;;40.40;;
32327;SDS011;18806;51.558;5.100;2022-08-19T04:37:28;60.05;;;38.67;;
32327;SDS011;18806;51.558;5.100;2022-08-19T04:40:04;55.80;;;37.97;;
32327;SDS011;18806;51.558;5.100;2022-08-19T04:42:51;58.67;;;38.50;;
32327;SDS011;18806;51.558;5.100;2022-08-19T04:45:19;58.63;;;39.35;;
32327;SDS011;18806;51.558;5.100;2022-08-19T04:47:48;58.58;;;38.85;;
32327;SDS011;18806;51.558;5.100;2022-08-19T04:50:41;59.70;;;37.33;;
32327;SDS011;18806;51.558;5.100;2022-08-19T04:53:12;54.65;;;37.75;;
32327;SDS011;18806;51.558;5.100;2022-08-19T04:55:41;59.63;;;38.60;;
32327;SDS011;18806;51.558;5.100;2022-08-19T04:58:08;52.42;;;35.80;;
32327;SDS011;18806;51.558;5.100;2022-08-19T05:00:39;56.95;;;38.10;;
32327;SDS011;18806;51.558;5.100;2022-08-19T05:03:06;53.25;;;37.17;;
32327;SDS011;18806;51.558;5.100;2022-08-19T05:05:40;56.28;;;37.28;;
32327;SDS011;18806;51.558;5.100;2022-08-19T05:08:11;58.08;;;38.75;;
32327;SDS011;18806;51.558;5.100;2022-08-19T05:10:41;57.00;;;38.00;;
32327;SDS011;18806;51.558;5.100;2022-08-19T05:13:08;56.45;;;37.28;;
32327;SDS011;18806;51.558;5.100;2022-08-19T05:29:13;57.88;;;36.38;;
32327;SDS011;18806;51.558;5.100;2022-08-19T05:31:44;51.42;;;34.65;;
32327;SDS011;18806;51.558;5.100;2022-08-19T05:34:11;52.10;;;35.47;;
32327;SDS011;18806;51.558;5.100;2022-08-19T05:36:45;55.95;;;35.00;;
32327;SDS011;18806;51.558;5.100;2022-08-19T05:39:17;55.30;;;36.63;;
32327;SDS011;18806;51.558;5.100;2022-08-19T05:41:47;49.83;;;34.30;;
32327;SDS011;18806;51.558;5.100;2022-08-19T05:44:15;50.58;;;33.72;;
32327;SDS011;18806;51.558;5.100;2022-08-19T05:46:43;54.25;;;34.72;;
32327;SDS011;18806;51.558;5.100;2022-08-19T05:49:13;52.15;;;34.22;;
32327;SDS011;18806;51.558;5.100;2022-08-19T05:51:42;50.22;;;33.40;;
32327;SDS011;18806;51.558;5.100;2022-08-19T05:54:09;48.45;;;33.00;;
32327;SDS011;18806;51.558;5.100;2022-08-19T05:56:40;50.35;;;32.35;;
32327;SDS011;18806;51.558;5.100;2022-08-19T05:59:08;54.25;;;33.35;;
32327;SDS011;18806;51.558;5.100;2022-08-19T06:01:38;51.10;;;32.47;;
32327;SDS011;18806;51.558;5.100;2022-08-19T06:04:05;52.83;;;32.05;;
32327;SDS011;18806;51.558;5.100;2022-08-19T06:06:35;44.75;;;30.10;;
32327;SDS011;18806;51.558;5.100;2022-08-19T06:09:03;52.05;;;33.20;;
32327;SDS011;18806;51.558;5.100;2022-08-19T06:11:34;51.78;;;32.30;;
32327;SDS011;18806;51.558;5.100;2022-08-19T06:14:03;48.63;;;32.47;;
32327;SDS011;18806;51.558;5.100;2022-08-19T06:16:30;51.80;;;33.35;;
32327;SDS011;18806;51.558;5.100;2022-08-19T06:19:06;49.75;;;33.33;;
32327;SDS011;18806;51.558;5.100;2022-08-19T06:21:34;52.22;;;32.92;;
32327;SDS011;18806;51.558;5.100;2022-08-19T06:24:04;52.13;;;33.72;;
32327;SDS011;18806;51.558;5.100;2022-08-19T06:26:33;52.50;;;33.50;;
32327;SDS011;18806;51.558;5.100;2022-08-19T06:29:00;52.53;;;33.50;;
32327;SDS011;18806;51.558;5.100;2022-08-19T06:31:28;51.22;;;34.38;;
32327;SDS011;18806;51.558;5.100;2022-08-19T06:34:00;52.58;;;33.97;;
32327;SDS011;18806;51.558;5.100;2022-08-19T06:36:35;53.70;;;35.53;;
32327;SDS011;18806;51.558;5.100;2022-08-19T06:39:13;50.17;;;34.10;;
32327;SDS011;18806;51.558;5.100;2022-08-19T06:41:59;50.35;;;32.92;;
32327;SDS011;18806;51.558;5.100;2022-08-19T06:44:28;51.33;;;34.63;;
32327;SDS011;18806;51.558;5.100;2022-08-19T06:46:57;48.13;;;33.40;;
32327;SDS011;18806;51.558;5.100;2022-08-19T06:49:39;48.75;;;32.60;;
32327;SDS011;18806;51.558;5.100;2022-08-19T06:52:16;47.67;;;31.73;;
32327;SDS011;18806;51.558;5.100;2022-08-19T06:54:47;56.28;;;33.42;;
32327;SDS011;18806;51.558;5.100;2022-08-19T06:57:22;53.83;;;32.60;;
32327;SDS011;18806;51.558;5.100;2022-08-19T07:02:46;48.78;;;33.17;;
32327;SDS011;18806;51.558;5.100;2022-08-19T07:05:25;50.58;;;33.10;;
32327;SDS011;18806;51.558;5.100;2022-08-19T07:07:55;51.10;;;32.05;;
32327;SDS011;18806;51.558;5.100;2022-08-19T07:10:30;49.25;;;33.30;;
32327;SDS011;18806;51.558;5.100;2022-08-19T07:13:00;55.50;;;34.28;;
32327;SDS011;18806;51.558;5.100;2022-08-19T07:15:27;50.15;;;34.35;;
32327;SDS011;18806;51.558;5.100;2022-08-19T07:17:58;52.78;;;35.08;;
32327;SDS011;18806;51.558;5.100;2022-08-19T07:20:25;51.85;;;34.75;;
32327;SDS011;18806;51.558;5.100;2022-08-19T07:22:55;57.35;;;36.78;;
32327;SDS011;18806;51.558;5.100;2022-08-19T07:25:23;55.85;;;35.72;;
32327;SDS011;18806;51.558;5.100;2022-08-19T07:27:58;56.25;;;35.05;;
32327;SDS011;18806;51.558;5.100;2022-08-19T07:33:05;50.38;;;34.08;;
32327;SDS011;18806;51.558;5.100;2022-08-19T07:35:34;49.80;;;31.92;;
32327;SDS011;18806;51.558;5.100;2022-08-19T07:38:19;50.63;;;33.05;;
32327;SDS011;18806;51.558;5.100;2022-08-19T07:40:58;48.30;;;30.63;;
32327;SDS011;18806;51.558;5.100;2022-08-19T07:43:38;50.85;;;32.38;;
32327;SDS011;18806;51.558;5.100;2022-08-19T07:46:21;46.97;;;32.35;;
32327;SDS011;18806;51.558;5.100;2022-08-19T07:49:06;49.75;;;33.92;;
32327;SDS011;18806;51.558;5.100;2022-08-19T07:51:34;51.55;;;33.33;;
32327;SDS011;18806;51.558;5.100;2022-08-19T07:54:02;54.40;;;33.30;;
32327;SDS011;18806;51.558;5.100;2022-08-19T07:56:29;52.08;;;32.90;;
32327;SDS011;18806;51.558;5.100;2022-08-19T07:58:56;55.22;;;34.85;;
32327;SDS011;18806;51.558;5.100;2022-08-19T08:01:29;50.30;;;34.55;;
32327;SDS011;18806;51.558;5.100;2022-08-19T08:04:00;49.97;;;32.88;;
32327;SDS011;18806;51.558;5.100;2022-08-19T08:06:46;53.50;;;34.17;;
32327;SDS011;18806;51.558;5.100;2022-08-19T08:09:37;52.72;;;34.97;;
32327;SDS011;18806;51.558;5.100;2022-08-19T08:12:23;56.00;;;35.17;;
32327;SDS011;18806;51.558;5.100;2022-08-19T08:15:27;52.33;;;34.60;;
32327;SDS011;18806;51.558;5.100;2022-08-19T08:17:54;51.50;;;34.55;;
32327;SDS011;18806;51.558;5.100;2022-08-19T08:26:00;54.42;;;35.40;;
32327;SDS011;18806;51.558;5.100;2022-08-19T08:28:31;49.00;;;33.20;;
32327;SDS011;18806;51.558;5.100;2022-08-19T08:30:59;46.80;;;31.30;;
32327;SDS011;18806;51.558;5.100;2022-08-19T08:33:27;47.35;;;33.78;;
32327;SDS011;18806;51.558;5.100;2022-08-19T08:35:59;45.15;;;32.13;;
32327;SDS011;18806;51.558;5.100;2022-08-19T08:38:30;48.75;;;32.55;;
32327;SDS011;18806;51.558;5.100;2022-08-19T08:46:19;48.80;;;35.25;;
32327;SDS011;18806;51.558;5.100;2022-08-19T08:51:45;58.38;;;38.35;;
32327;SDS011;18806;51.558;5.100;2022-08-19T08:54:25;54.45;;;37.70;;
32327;SDS011;18806;51.558;5.100;2022-08-19T09:04:11;62.20;;;40.85;;
32327;SDS011;18806;51.558;5.100;2022-08-19T09:13:28;57.05;;;40.13;;
32327;SDS011;18806;51.558;5.100;2022-08-19T09:16:10;61.08;;;39.03;;
32327;SDS011;18806;51.558;5.100;2022-08-19T09:18:42;57.63;;;40.08;;
32327;SDS011;18806;51.558;5.100;2022-08-19T09:21:10;57.08;;;40.25;;
32327;SDS011;18806;51.558;5.100;2022-08-19T09:23:37;54.00;;;39.50;;
32327;SDS011;18806;51.558;5.100;2022-08-19T09:26:11;54.10;;;38.58;;
32327;SDS011;18806;51.558;5.100;2022-08-19T09:28:43;57.75;;;39.83;;
32327;SDS011;18806;51.558;5.100;2022-08-19T09:31:16;54.03;;;37.15;;
32327;SDS011;18806;51.558;5.100;2022-08-19T09:33:43;56.40;;;38.22;;
32327;SDS011;18806;51.558;5.100;2022-08-19T09:36:11;57.05;;;38.72;;
32327;SDS011;18806;51.558;5.100;2022-08-19T09:38:56;51.28;;;36.75;;
32327;SDS011;18806;51.558;5.100;2022-08-19T09:41:24;51.95;;;36.38;;
32327;SDS011;18806;51.558;5.100;2022-08-19T09:50:04;51.67;;;35.92;;
32327;SDS011;18806;51.558;5.100;2022-08-19T09:52:32;57.05;;;38.83;;
32327;SDS011;18806;51.558;5.100;2022-08-19T09:59:07;47.00;;;33.90;;
32327;SDS011;18806;51.558;5.100;2022-08-19T10:01:56;45.45;;;33.67;;
32327;SDS011;18806;51.558;5.100;2022-08-19T10:04:36;43.60;;;32.75;;
32327;SDS011;18806;51.558;5.100;2022-08-19T10:07:22;37.47;;;29.00;;
32327;SDS011;18806;51.558;5.100;2022-08-19T10:23:11;36.90;;;27.30;;
32327;SDS011;18806;51.558;5.100;2022-08-19T10:25:39;37.58;;;28.95;;
32327;SDS011;18806;51.558;5.100;2022-08-19T10:28:08;38.70;;;28.63;;
32327;SDS011;18806;51.558;5.100;2022-08-19T10:30:38;38.45;;;29.58;;
32327;SDS011;18806;51.558;5.100;2022-08-19T10:33:06;38.17;;;29.25;;
32327;SDS011;18806;51.558;5.100;2022-08-19T10:35:36;34.65;;;27.67;;
32327;SDS011;18806;51.558;5.100;2022-08-19T10:38:22;34.92;;;24.88;;
32327;SDS011;18806;51.558;5.100;2022-08-19T10:40:58;32.88;;;25.52;;
32327;SDS011;18806;51.558;5.100;2022-08-19T10:51:02;35.38;;;24.35;;
32327;SDS011;18806;51.558;5.100;2022-08-19T10:54:05;38.85;;;25.02;;
32327;SDS011;18806;51.558;5.100;2022-08-19T11:06:06;47.07;;;30.43;;
32327;SDS011;18806;51.558;5.100;2022-08-19T11:09:24;41.33;;;29.00;;
32327;SDS011;18806;51.558;5.100;2022-08-19T11:15:23;41.20;;;29.40;;
32327;SDS011;18806;51.558;5.100;2022-08-19T11:17:50;43.92;;;30.17;;
32327;SDS011;18806;51.558;5.100;2022-08-19T11:20:20;41.10;;;29.58;;
32327;SDS011;18806;51.558;5.100;2022-08-19T11:22:47;44.55;;;30.27;;
32327;SDS011;18806;51.558;5.100;2022-08-19T11:25:14;40.38;;;30.05;;
32327;SDS011;18806;51.558;5.100;2022-08-19T11:27:41;36.63;;;29.33;;
32327;SDS011;18806;51.558;5.100;2022-08-19T11:30:13;41.88;;;32.08;;
32327;SDS011;18806;51.558;5.100;2022-08-19T11:32:41;49.78;;;33.63;;
32327;SDS011;18806;51.558;5.100;2022-08-19T11:35:14;42.70;;;30.05;;
32327;SDS011;18806;51.558;5.100;2022-08-19T11:37:44;40.17;;;28.08;;
32327;SDS011;18806;51.558;5.100;2022-08-19T11:56:11;36.63;;;27.52;;
32327;SDS011;18806;51.558;5.100;2022-08-19T11:58:40;37.10;;;28.50;;
32327;SDS011;18806;51.558;5.100;2022-08-19T12:01:15;40.67;;;30.27;;
32327;SDS011;18806;51.558;5.100;2022-08-19T12:03:43;41.75;;;31.52;;
32327;SDS011;18806;51.558;5.100;2022-08-19T12:06:13;49.88;;;36.70;;
32327;SDS011;18806;51.558;5.100;2022-08-19T12:08:40;46.25;;;34.63;;
32327;SDS011;18806;51.558;5.100;2022-08-19T12:11:08;48.30;;;35.20;;
32327;SDS011;18806;51.558;5.100;2022-08-19T12:13:36;45.67;;;32.92;;
32327;SDS011;18806;51.558;5.100;2022-08-19T12:16:34;47.33;;;33.50;;
32327;SDS011;18806;51.558;5.100;2022-08-19T12:19:09;45.20;;;33.25;;
32327;SDS011;18806;51.558;5.100;2022-08-19T12:21:37;43.35;;;32.13;;
32327;SDS011;18806;51.558;5.100;2022-08-19T12:24:05;46.30;;;33.63;;
32327;SDS011;18806;51.558;5.100;2022-08-19T12:26:32;44.20;;;30.95;;
32327;SDS011;18806;51.558;5.100;2022-08-19T12:29:17;44.58;;;30.58;;
32327;SDS011;18806;51.558;5.100;2022-08-19T12:31:49;39.88;;;28.95;;
32327;SDS011;18806;51.558;5.100;2022-08-19T12:34:16;34.47;;;25.50;;
32327;SDS011;18806;51.558;5.100;2022-08-19T12:36:45;32.65;;;23.83;;
32327;SDS011;18806;51.558;5.100;2022-08-19T12:39:15;33.00;;;23.95;;
32327;SDS011;18806;51.558;5.100;2022-08-19T12:41:42;32.13;;;22.83;;
32327;SDS011;18806;51.558;5.100;2022-08-19T12:44:29;29.83;;;22.02;;
32327;SDS011;18806;51.558;5.100;2022-08-19T12:46:59;31.35;;;22.27;;
32327;SDS011;18806;51.558;5.100;2022-08-19T12:49:32;29.27;;;21.33;;
32327;SDS011;18806;51.558;5.100;2022-08-19T12:52:23;27.15;;;18.80;;
32327;SDS011;18806;51.558;5.100;2022-08-19T12:54:54;26.52;;;19.48;;
32327;SDS011;18806;51.558;5.100;2022-08-19T12:57:26;25.17;;;19.75;;
